Time;durP1;ratioP1;P1;durP2;ratioP2;P2;SDS_P1;SDS_P2;PMS_P1;PMS_P2;Temp;Humidity;BMP_temperature;BMP_pressure;BME280_temperature;BME280_humidity;BME280_pressure;Samples;Min_cycle;Max_cycle;Signal;HPM_P1;HPM_P2
2023/10/08 00:01:16;;;;;;;4.80;2.22;;;;;;;;;;5056281;28;20041;-74
2023/10/08 00:03:50;;;;;;;9.43;2.70;;;;;;;;;;5056395;28;20111;-74
2023/10/08 00:06:21;;;;;;;5.78;2.50;;;;;;;;;;5056008;28;20025;-73
2023/10/08 00:08:47;;;;;;;6.50;2.45;;;;;;;;;;5055938;28;20048;-73
2023/10/08 00:11:12;;;;;;;4.20;2.25;;;;;;;;;;5056199;28;20053;-73
2023/10/08 00:13:41;;;;;;;6.10;2.55;;;;;;;;;;5056137;28;20103;-73
2023/10/08 00:16:11;;;;;;;6.50;2.75;;;;;;;;;;5055869;28;20051;-73
2023/10/08 00:18:38;;;;;;;6.88;2.60;;;;;;;;;;5056191;28;20445;-74
2023/10/08 00:23:35;;;;;;;6.88;2.50;;;;;;;;;;5055951;28;20090;-73
2023/10/08 00:26:04;;;;;;;8.02;2.60;;;;;;;;;;5055615;28;20024;-73
2023/10/08 00:28:31;;;;;;;9.10;2.50;;;;;;;;;;5054207;28;20059;-73
2023/10/08 00:30:57;;;;;;;5.75;2.58;;;;;;;;;;5055291;28;20029;-73
2023/10/08 00:33:22;;;;;;;6.00;2.95;;;;;;;;;;5054203;28;20029;-73
2023/10/08 00:35:47;;;;;;;4.57;2.20;;;;;;;;;;5055111;28;20021;-73
2023/10/08 00:38:20;;;;;;;7.40;3.00;;;;;;;;;;5054067;28;20032;-74
2023/10/08 00:40:45;;;;;;;4.75;2.70;;;;;;;;;;5055273;28;20262;-73
2023/10/08 00:43:34;;;;;;;8.75;2.75;;;;;;;;;;5054196;28;20021;-74
2023/10/08 00:46:00;;;;;;;5.18;2.53;;;;;;;;;;5055247;28;20074;-74
2023/10/08 00:48:34;;;;;;;11.82;2.80;;;;;;;;;;5055163;28;20092;-74
2023/10/08 00:51:15;;;;;;;5.15;2.42;;;;;;;;;;5055081;28;20029;-74
2023/10/08 00:53:40;;;;;;;9.65;2.80;;;;;;;;;;5055372;28;20075;-74
2023/10/08 00:56:15;;;;;;;8.63;2.90;;;;;;;;;;5053617;28;20045;-74
2023/10/08 00:58:46;;;;;;;5.60;3.17;;;;;;;;;;5055306;28;20025;-73
2023/10/08 01:01:12;;;;;;;5.53;2.70;;;;;;;;;;5055145;28;20025;-74
2023/10/08 01:03:44;;;;;;;8.32;3.10;;;;;;;;;;5054816;28;20110;-73
2023/10/08 01:06:10;;;;;;;5.95;2.70;;;;;;;;;;5055154;28;20031;-74
2023/10/08 01:08:36;;;;;;;8.07;2.85;;;;;;;;;;5055059;28;20024;-74
2023/10/08 01:11:46;;;;;;;7.45;2.65;;;;;;;;;;5054685;28;20029;-74
2023/10/08 01:14:11;;;;;;;7.45;3.10;;;;;;;;;;5032882;28;20025;-75
2023/10/08 01:16:36;;;;;;;4.55;2.53;;;;;;;;;;5051250;28;20136;-74
2023/10/08 01:19:02;;;;;;;8.33;3.40;;;;;;;;;;5053318;28;20107;-73
2023/10/08 01:21:39;;;;;;;7.07;3.25;;;;;;;;;;5054522;28;20254;-74
2023/10/08 01:24:06;;;;;;;8.38;3.28;;;;;;;;;;5054519;28;20022;-74
2023/10/08 01:26:33;;;;;;;8.70;3.30;;;;;;;;;;5054414;28;20078;-74
2023/10/08 01:29:07;;;;;;;8.00;3.22;;;;;;;;;;5054333;28;20020;-73
2023/10/08 01:31:32;;;;;;;6.22;2.70;;;;;;;;;;5054795;28;20031;-74
2023/10/08 01:33:58;;;;;;;6.13;3.15;;;;;;;;;;5054350;28;20492;-74
2023/10/08 01:36:25;;;;;;;6.53;3.92;;;;;;;;;;5052891;28;20021;-74
2023/10/08 01:38:50;;;;;;;9.88;4.70;;;;;;;;;;5054050;28;20057;-73
2023/10/08 01:41:19;;;;;;;6.80;4.07;;;;;;;;;;5054293;28;20056;-73
2023/10/08 01:43:45;;;;;;;5.65;3.53;;;;;;;;;;5053949;28;20404;-73
2023/10/08 01:46:12;;;;;;;10.98;4.93;;;;;;;;;;5053988;28;20025;-74
2023/10/08 01:48:39;;;;;;;7.05;4.32;;;;;;;;;;5053940;28;20025;-73
2023/10/08 01:51:11;;;;;;;10.73;4.60;;;;;;;;;;5053718;28;20024;-73
2023/10/08 01:53:36;;;;;;;7.90;4.47;;;;;;;;;;5054414;28;20098;-73
2023/10/08 01:56:04;;;;;;;6.93;3.90;;;;;;;;;;5053895;28;20036;-74
2023/10/08 01:58:29;;;;;;;6.10;2.80;;;;;;;;;;5053737;28;20029;-74
2023/10/08 02:01:00;;;;;;;6.03;2.70;;;;;;;;;;5053848;28;20421;-73
2023/10/08 02:03:25;;;;;;;2.20;1.50;;;;;;;;;;5052425;28;20502;-74
2023/10/08 02:05:53;;;;;;;2.05;1.33;;;;;;;;;;5053697;28;20025;-73
2023/10/08 02:08:19;;;;;;;1.05;0.70;;;;;;;;;;5053587;28;20024;-74
2023/10/08 02:10:47;;;;;;;0.55;0.50;;;;;;;;;;5053438;28;20032;-73
2023/10/08 02:13:14;;;;;;;0.55;0.30;;;;;;;;;;5052551;28;20112;-74
2023/10/08 02:15:52;;;;;;;0.50;0.30;;;;;;;;;;5053803;28;20025;-73
2023/10/08 02:18:18;;;;;;;0.20;0.20;;;;;;;;;;5053634;28;20083;-74
2023/10/08 02:20:43;;;;;;;0.17;0.17;;;;;;;;;;5053318;28;20021;-74
2023/10/08 02:23:11;;;;;;;0.20;0.20;;;;;;;;;;5052067;28;20094;-74
2023/10/08 02:25:38;;;;;;;0.05;0.05;;;;;;;;;;5053364;28;20029;-74
2023/10/08 02:28:03;;;;;;;0.15;0.15;;;;;;;;;;5053242;28;20025;-75
2023/10/08 02:30:29;;;;;;;0.30;0.03;;;;;;;;;;5053158;28;20032;-73
2023/10/08 02:32:54;;;;;;;0.08;0.08;;;;;;;;;;5053160;28;20025;-74
2023/10/08 02:35:19;;;;;;;0.05;0.05;;;;;;;;;;5053709;28;20021;-74
2023/10/08 02:37:45;;;;;;;0.00;0.00;;;;;;;;;;5052985;28;20028;-74
2023/10/08 02:40:26;;;;;;;0.00;0.00;;;;;;;;;;5053497;28;20095;-73
2023/10/08 02:42:57;;;;;;;0.10;0.10;;;;;;;;;;5053304;28;20483;-73
2023/10/08 02:45:25;;;;;;;0.00;0.00;;;;;;;;;;5053331;28;20074;-74
2023/10/08 02:47:52;;;;;;;0.10;0.10;;;;;;;;;;5053927;28;20021;-74
2023/10/08 02:50:18;;;;;;;0.08;0.05;;;;;;;;;;5052939;28;20033;-74
2023/10/08 02:52:44;;;;;;;0.00;0.00;;;;;;;;;;5052788;28;20021;-74
2023/10/08 02:55:22;;;;;;;0.00;0.00;;;;;;;;;;5052804;28;20035;-74
2023/10/08 02:57:50;;;;;;;0.35;0.00;;;;;;;;;;5052804;28;20036;-74
2023/10/08 03:00:16;;;;;;;0.10;0.10;;;;;;;;;;5052978;28;20361;-74
2023/10/08 03:02:41;;;;;;;0.20;0.10;;;;;;;;;;5052660;28;20051;-74
2023/10/08 03:05:08;;;;;;;0.10;0.10;;;;;;;;;;5052708;28;20065;-75
2023/10/08 03:07:35;;;;;;;1.98;0.10;;;;;;;;;;5052009;28;20032;-74
2023/10/08 03:10:03;;;;;;;0.10;0.10;;;;;;;;;;5051425;28;20510;-74
2023/10/08 03:12:32;;;;;;;0.25;0.10;;;;;;;;;;5052653;28;20024;-74
2023/10/08 03:15:12;;;;;;;0.05;0.05;;;;;;;;;;5053161;28;20033;-74
2023/10/08 03:17:48;;;;;;;0.30;0.10;;;;;;;;;;5052610;28;20036;-74
2023/10/08 03:23:33;;;;;;;0.00;0.00;;;;;;;;;;5050466;28;20376;-74
2023/10/08 03:26:09;;;;;;;0.10;0.10;;;;;;;;;;5052603;28;20078;-73
2023/10/08 03:28:34;;;;;;;0.20;0.10;;;;;;;;;;5053130;28;20020;-74
2023/10/08 03:31:04;;;;;;;0.00;0.00;;;;;;;;;;5052497;28;20025;-74
2023/10/08 03:33:34;;;;;;;0.10;0.10;;;;;;;;;;5052766;28;20494;-74
2023/10/08 03:36:08;;;;;;;0.20;0.10;;;;;;;;;;5052479;28;20025;-74
2023/10/08 03:39:13;;;;;;;0.10;0.10;;;;;;;;;;5052748;28;20379;-74
2023/10/08 03:41:29;;;;;;;0.13;0.10;;;;;;;;;;5052066;28;20040;-73
2023/10/08 03:44:01;;;;;;;4.63;0.30;;;;;;;;;;5052405;28;20107;-73
2023/10/08 03:46:29;;;;;;;1.13;0.40;;;;;;;;;;5052843;28;20518;-74
2023/10/08 03:48:57;;;;;;;1.45;0.52;;;;;;;;;;5051053;28;20025;-73
2023/10/08 03:51:26;;;;;;;2.38;0.73;;;;;;;;;;5052172;28;20033;-73
2023/10/08 03:54:29;;;;;;;1.85;0.70;;;;;;;;;;5052939;28;20040;-74
2023/10/08 03:56:46;;;;;;;2.78;0.70;;;;;;;;;;5051836;28;20037;-74
2023/10/08 03:59:13;;;;;;;2.17;0.93;;;;;;;;;;5052592;28;20060;-74
2023/10/08 04:01:42;;;;;;;2.55;0.85;;;;;;;;;;5052375;28;20430;-74
2023/10/08 04:04:12;;;;;;;3.00;0.80;;;;;;;;;;5052242;28;20021;-73
2023/10/08 04:06:38;;;;;;;2.20;0.85;;;;;;;;;;5052488;28;20056;-73
2023/10/08 04:11:36;;;;;;;1.45;0.70;;;;;;;;;;5052408;28;20033;-75
2023/10/08 04:14:04;;;;;;;3.38;0.73;;;;;;;;;;5052662;28;20032;-73
2023/10/08 04:16:36;;;;;;;2.22;0.93;;;;;;;;;;5052327;28;20104;-73
2023/10/08 04:19:03;;;;;;;1.23;0.70;;;;;;;;;;5055334;28;20052;-73
2023/10/08 04:21:29;;;;;;;1.67;0.63;;;;;;;;;;5055829;28;20024;-73
2023/10/08 04:23:57;;;;;;;2.55;0.70;;;;;;;;;;5055756;28;20029;-73
2023/10/08 04:26:23;;;;;;;3.00;0.80;;;;;;;;;;5055813;28;20112;-73
2023/10/08 04:29:02;;;;;;;2.05;0.70;;;;;;;;;;5055781;28;20029;-73
2023/10/08 04:31:37;;;;;;;3.22;0.65;;;;;;;;;;5055654;28;20025;-73
2023/10/08 04:34:09;;;;;;;3.05;0.82;;;;;;;;;;5055804;28;20033;-73
2023/10/08 04:36:38;;;;;;;2.85;0.77;;;;;;;;;;5055492;28;20025;-74
2023/10/08 04:39:12;;;;;;;2.70;0.77;;;;;;;;;;5054139;28;20033;-74
2023/10/08 04:41:42;;;;;;;1.65;0.70;;;;;;;;;;5055626;28;20373;-74
2023/10/08 04:44:13;;;;;;;2.67;0.75;;;;;;;;;;5054330;28;20067;-74
2023/10/08 04:49:17;;;;;;;2.83;0.82;;;;;;;;;;5055392;28;20048;-74
2023/10/08 04:51:46;;;;;;;2.20;0.68;;;;;;;;;;5053778;28;20040;-74
2023/10/08 04:54:18;;;;;;;3.00;1.05;;;;;;;;;;5055376;28;20021;-74
2023/10/08 04:56:44;;;;;;;2.15;0.85;;;;;;;;;;5055155;28;20021;-74
2023/10/08 04:59:11;;;;;;;2.10;0.90;;;;;;;;;;5053669;28;20025;-74
2023/10/08 05:02:12;;;;;;;3.08;0.77;;;;;;;;;;5054915;28;20427;-74
2023/10/08 05:04:46;;;;;;;2.25;0.60;;;;;;;;;;5054792;28;20365;-74
2023/10/08 05:07:21;;;;;;;1.38;0.73;;;;;;;;;;5054825;28;20091;-74
2023/10/08 05:10:10;;;;;;;2.70;0.80;;;;;;;;;;5055105;28;20048;-74
2023/10/08 05:12:46;;;;;;;1.67;0.70;;;;;;;;;;5054754;28;20021;-74
2023/10/08 05:20:29;;;;;;;2.10;0.95;;;;;;;;;;5054982;28;20024;-73
2023/10/08 05:23:05;;;;;;;1.50;0.65;;;;;;;;;;5055149;28;20021;-74
2023/10/08 05:25:53;;;;;;;5.35;0.90;;;;;;;;;;5053263;28;20028;-74
2023/10/08 05:28:24;;;;;;;1.75;0.70;;;;;;;;;;5054511;28;20017;-74
2023/10/08 05:31:46;;;;;;;2.42;0.70;;;;;;;;;;5053978;28;20078;-74
2023/10/08 05:33:59;;;;;;;1.95;0.70;;;;;;;;;;5054052;28;20037;-73
2023/10/08 05:36:34;;;;;;;1.45;0.50;;;;;;;;;;5054874;28;20021;-74
2023/10/08 05:42:05;;;;;;;3.72;0.70;;;;;;;;;;5054193;28;20111;-73
2023/10/08 05:44:39;;;;;;;4.25;0.70;;;;;;;;;;5054446;28;20086;-74
2023/10/08 05:55:27;;;;;;;2.33;0.80;;;;;;;;;;5054093;28;20039;-73
2023/10/08 05:58:13;;;;;;;0.63;0.52;;;;;;;;;;5054162;28;20116;-73
2023/10/08 06:03:32;;;;;;;1.63;0.70;;;;;;;;;;5054163;28;20025;-73
2023/10/08 06:11:36;;;;;;;1.58;0.82;;;;;;;;;;5053935;28;20075;-74
2023/10/08 06:14:03;;;;;;;1.77;0.90;;;;;;;;;;5054346;28;20039;-74
2023/10/08 06:16:41;;;;;;;1.90;0.75;;;;;;;;;;5053998;28;20021;-74
2023/10/08 06:19:06;;;;;;;2.13;0.70;;;;;;;;;;5053684;28;20029;-73
2023/10/08 06:21:31;;;;;;;1.63;0.75;;;;;;;;;;5053511;28;20079;-74
2023/10/08 06:23:57;;;;;;;3.08;1.05;;;;;;;;;;5053520;28;20044;-73
2023/10/08 06:26:24;;;;;;;2.22;0.70;;;;;;;;;;5054366;28;20054;-74
2023/10/08 06:28:49;;;;;;;1.35;0.70;;;;;;;;;;5054052;28;20013;-76
2023/10/08 06:31:16;;;;;;;2.83;0.88;;;;;;;;;;5053944;28;20028;-74
2023/10/08 06:33:43;;;;;;;1.55;0.82;;;;;;;;;;5053679;28;20025;-74
2023/10/08 06:38:38;;;;;;;3.00;1.30;;;;;;;;;;5053275;28;20025;-74
2023/10/08 06:43:47;;;;;;;1.02;0.80;;;;;;;;;;5053713;28;20166;-76
2023/10/08 06:46:13;;;;;;;4.68;1.08;;;;;;;;;;5053292;28;20056;-76
2023/10/08 06:48:42;;;;;;;2.17;0.98;;;;;;;;;;5053042;28;20484;-76
2023/10/08 06:51:14;;;;;;;1.75;0.90;;;;;;;;;;5052855;28;20025;-76
2023/10/08 06:53:40;;;;;;;1.65;0.70;;;;;;;;;;5051862;28;20481;-76
2023/10/08 06:56:05;;;;;;;1.40;0.80;;;;;;;;;;5052992;28;20025;-76
2023/10/08 06:58:32;;;;;;;2.88;1.05;;;;;;;;;;5052952;28;20468;-76
2023/10/08 07:00:58;;;;;;;1.75;0.80;;;;;;;;;;5051654;28;20040;-76
2023/10/08 07:03:24;;;;;;;4.10;1.10;;;;;;;;;;5053540;28;20025;-74
2023/10/08 07:06:00;;;;;;;2.53;0.90;;;;;;;;;;5053036;28;20036;-75
2023/10/08 07:08:35;;;;;;;3.70;1.10;;;;;;;;;;5053029;28;20345;-75
2023/10/08 07:11:06;;;;;;;4.25;1.20;;;;;;;;;;5051405;28;20488;-74
2023/10/08 07:13:32;;;;;;;3.80;1.08;;;;;;;;;;5052983;28;20036;-75
2023/10/08 07:15:58;;;;;;;3.08;1.00;;;;;;;;;;5051467;28;20033;-74
2023/10/08 07:18:26;;;;;;;4.40;1.60;;;;;;;;;;5052638;28;20032;-75
2023/10/08 07:20:55;;;;;;;6.10;1.60;;;;;;;;;;5052803;28;20046;-75
2023/10/08 07:23:33;;;;;;;2.92;1.40;;;;;;;;;;5051494;28;20025;-75
2023/10/08 07:26:17;;;;;;;3.05;1.40;;;;;;;;;;5051151;28;20021;-76
2023/10/08 07:28:44;;;;;;;1.73;1.13;;;;;;;;;;5052947;28;20102;-74
2023/10/08 07:31:16;;;;;;;2.22;1.30;;;;;;;;;;5052625;28;20033;-74
2023/10/08 07:33:46;;;;;;;2.05;1.10;;;;;;;;;;5052827;28;20025;-73
2023/10/08 07:36:14;;;;;;;2.42;1.17;;;;;;;;;;5053012;28;20111;-74
2023/10/08 07:38:43;;;;;;;2.30;1.02;;;;;;;;;;5052633;28;20475;-74
2023/10/08 07:41:14;;;;;;;3.72;1.63;;;;;;;;;;5052515;28;20044;-73
2023/10/08 07:43:43;;;;;;;3.17;1.23;;;;;;;;;;5052609;28;20123;-74
2023/10/08 07:46:09;;;;;;;3.83;1.27;;;;;;;;;;5051114;28;20036;-74
2023/10/08 07:48:35;;;;;;;2.40;1.38;;;;;;;;;;5052214;28;20025;-74
2023/10/08 07:51:00;;;;;;;1.58;0.98;;;;;;;;;;5052188;28;20037;-72
2023/10/08 07:53:37;;;;;;;2.60;1.00;;;;;;;;;;5054700;28;20436;-72
2023/10/08 07:56:10;;;;;;;1.92;0.90;;;;;;;;;;5055277;28;20025;-72
2023/10/08 07:58:36;;;;;;;1.33;0.93;;;;;;;;;;5055670;28;20507;-73
2023/10/08 08:01:13;;;;;;;3.53;0.95;;;;;;;;;;5056137;28;20041;-72
2023/10/08 08:03:41;;;;;;;3.08;1.02;;;;;;;;;;5056217;28;20021;-72
2023/10/08 08:06:10;;;;;;;12.00;5.75;;;;;;;;;;5056009;28;20112;-73
2023/10/08 08:08:37;;;;;;;3.58;1.25;;;;;;;;;;5055974;28;20103;-72
2023/10/08 08:11:12;;;;;;;2.95;1.20;;;;;;;;;;5054929;28;20036;-73
2023/10/08 08:13:42;;;;;;;3.15;1.30;;;;;;;;;;5054332;28;20035;-75
2023/10/08 08:16:16;;;;;;;1.90;1.00;;;;;;;;;;5056039;28;20024;-75
2023/10/08 08:18:42;;;;;;;2.33;1.10;;;;;;;;;;5055670;28;20024;-74
2023/10/08 08:21:14;;;;;;;4.93;1.40;;;;;;;;;;5056028;28;20373;-75
2023/10/08 08:23:39;;;;;;;2.70;1.17;;;;;;;;;;5056745;28;20025;-75
2023/10/08 08:26:13;;;;;;;3.25;1.20;;;;;;;;;;5055062;28;20021;-75
2023/10/08 08:28:39;;;;;;;2.20;1.10;;;;;;;;;;5054927;28;20017;-75
2023/10/08 08:31:13;;;;;;;3.80;1.15;;;;;;;;;;5055844;28;20033;-77
2023/10/08 08:33:53;;;;;;;1.77;0.90;;;;;;;;;;5055785;28;20087;-75
2023/10/08 08:36:20;;;;;;;4.40;1.02;;;;;;;;;;5057190;28;20447;-76
2023/10/08 08:38:46;;;;;;;2.45;1.10;;;;;;;;;;5054214;28;20116;-75
2023/10/08 08:41:12;;;;;;;2.78;1.10;;;;;;;;;;5055123;28;20100;-76
2023/10/08 08:43:43;;;;;;;2.33;0.90;;;;;;;;;;5055393;28;20067;-75
2023/10/08 08:46:12;;;;;;;2.50;1.10;;;;;;;;;;5054690;28;20025;-76
2023/10/08 08:48:42;;;;;;;1.20;0.90;;;;;;;;;;5054895;28;20024;-76
2023/10/08 08:51:09;;;;;;;1.48;0.85;;;;;;;;;;5055173;28;20037;-76
2023/10/08 08:53:37;;;;;;;3.17;1.00;;;;;;;;;;5053922;28;20071;-76
2023/10/08 08:56:06;;;;;;;2.35;1.00;;;;;;;;;;5055080;28;20040;-76
2023/10/08 08:58:33;;;;;;;1.80;0.88;;;;;;;;;;5055321;28;20029;-76
2023/10/08 09:00:59;;;;;;;4.80;1.05;;;;;;;;;;5055022;28;20418;-76
2023/10/08 09:03:30;;;;;;;2.03;0.95;;;;;;;;;;5054840;28;20494;-77
2023/10/08 09:05:56;;;;;;;3.50;1.00;;;;;;;;;;5054465;28;20040;-76
2023/10/08 09:08:24;;;;;;;1.85;0.90;;;;;;;;;;5053675;28;20024;-76
2023/10/08 09:10:52;;;;;;;4.93;1.25;;;;;;;;;;5054789;28;20373;-76
2023/10/08 09:13:25;;;;;;;4.97;1.00;;;;;;;;;;5053579;28;20108;-76
2023/10/08 09:15:51;;;;;;;2.05;0.82;;;;;;;;;;5054803;28;20087;-76
2023/10/08 09:18:17;;;;;;;1.80;1.02;;;;;;;;;;5054617;28;20036;-75
2023/10/08 09:20:43;;;;;;;1.65;1.00;;;;;;;;;;5054605;28;20484;-76
2023/10/08 09:23:17;;;;;;;2.88;1.20;;;;;;;;;;5054672;28;20075;-76
2023/10/08 09:25:43;;;;;;;;;;;;;;;;;;5055813;28;20430;-76
2023/10/08 09:28:12;;;;;;;2.33;1.13;;;;;;;;;;5054549;28;19924;-76
2023/10/08 09:30:39;;;;;;;2.58;1.10;;;;;;;;;;5054433;28;20521;-75
2023/10/08 09:33:09;;;;;;;2.25;1.20;;;;;;;;;;5054781;28;20120;-75
2023/10/08 09:35:36;;;;;;;8.95;1.52;;;;;;;;;;5054354;28;20024;-76
2023/10/08 09:38:03;;;;;;;3.28;1.10;;;;;;;;;;5054406;28;20083;-75
2023/10/08 09:40:28;;;;;;;3.67;1.30;;;;;;;;;;5053091;28;20032;-75
2023/10/08 09:42:54;;;;;;;3.15;1.23;;;;;;;;;;5054527;28;20024;-76
2023/10/08 09:45:21;;;;;;;4.35;1.27;;;;;;;;;;5054332;28;20017;-75
2023/10/08 09:47:56;;;;;;;3.80;1.35;;;;;;;;;;5054138;28;20106;-75
2023/10/08 09:50:36;;;;;;;6.53;1.33;;;;;;;;;;5052695;28;20037;-75
2023/10/08 09:53:16;;;;;;;4.53;1.30;;;;;;;;;;5054194;28;20471;-75
2023/10/08 09:55:45;;;;;;;5.93;1.40;;;;;;;;;;5054346;28;20029;-75
2023/10/08 09:58:14;;;;;;;2.97;1.02;;;;;;;;;;5054026;28;20029;-75
2023/10/08 10:00:41;;;;;;;6.30;1.50;;;;;;;;;;5053825;28;20032;-73
2023/10/08 10:03:08;;;;;;;4.25;1.40;;;;;;;;;;5054071;28;20047;-75
2023/10/08 10:05:35;;;;;;;6.75;1.50;;;;;;;;;;5053869;28;20033;-74
2023/10/08 10:08:05;;;;;;;3.45;1.42;;;;;;;;;;5052877;28;20480;-74
2023/10/08 10:10:33;;;;;;;1.92;1.20;;;;;;;;;;5053694;28;20056;-74
2023/10/08 10:16:48;;;;;;;3.00;1.20;;;;;;;;;;4746656;26;20059;-77
2023/10/08 10:20:13;;;;;;;4.38;1.42;;;;;;;;;;4933894;29;20036;-75
2023/10/08 10:27:12;;;;;;;2.75;1.25;;;;;;;;;;4973061;28;20193;-75
2023/10/08 10:29:47;;;;;;;;;;;;;;;;;;;;;
2023/10/08 10:32:31;;;;;;;3.22;1.27;;;;;;;;;;5007746;22;20083;-76
2023/10/08 10:35:27;;;;;;;;;;;;;;;;;;5013719;28;20480;-75
2023/10/08 10:38:03;;;;;;;4.95;1.50;;;;;;;;;;5011425;28;19916;-74
2023/10/08 10:40:31;;;;;;;6.20;1.40;;;;;;;;;;5014764;28;20054;-76
2023/10/08 10:42:57;;;;;;;1.67;1.10;;;;;;;;;;5013843;28;20052;-77
2023/10/08 10:45:44;;;;;;;6.30;1.30;;;;;;;;;;5013883;28;20076;-77
2023/10/08 10:51:07;;;;;;;3.47;1.45;;;;;;;;;;5013400;28;20029;-77
2023/10/08 10:53:48;;;;;;;4.88;1.52;;;;;;;;;;5012531;28;20022;-78
2023/10/08 10:56:18;;;;;;;3.58;1.65;;;;;;;;;;5011860;28;20036;-77
2023/10/08 10:58:48;;;;;;;3.35;1.40;;;;;;;;;;5013493;28;20495;-79
2023/10/08 11:01:46;;;;;;;2.72;1.38;;;;;;;;;;5013941;28;20034;-78
2023/10/08 11:04:00;;;;;;;4.53;1.30;;;;;;;;;;5014475;28;20112;-76
2023/10/08 11:06:26;;;;;;;4.67;1.30;;;;;;;;;;5015144;28;20434;-76
2023/10/08 11:08:53;;;;;;;4.97;1.40;;;;;;;;;;5013931;28;20255;-77
2023/10/08 11:11:19;;;;;;;6.78;1.40;;;;;;;;;;5013213;28;20029;-75
2023/10/08 11:13:51;;;;;;;2.67;1.40;;;;;;;;;;5014758;28;20040;-76
2023/10/08 11:16:19;;;;;;;4.15;1.33;;;;;;;;;;5014295;28;20132;-76
2023/10/08 11:18:50;;;;;;;3.70;1.33;;;;;;;;;;5012510;28;20394;-77
2023/10/08 11:21:16;;;;;;;6.07;1.30;;;;;;;;;;5015171;28;20034;-79
2023/10/08 11:23:53;;;;;;;3.58;1.30;;;;;;;;;;5022008;28;20037;-77
2023/10/08 11:26:19;;;;;;;5.45;1.30;;;;;;;;;;5021462;28;20026;-78
2023/10/08 11:28:47;;;;;;;6.38;2.22;;;;;;;;;;5022802;28;20022;-77
2023/10/08 11:31:20;;;;;;;3.53;1.20;;;;;;;;;;5021047;28;20132;-78
2023/10/08 11:33:53;;;;;;;4.10;1.45;;;;;;;;;;5020599;28;20101;-78
2023/10/08 11:36:20;;;;;;;3.20;1.10;;;;;;;;;;5019289;28;20057;-77
2023/10/08 11:38:50;;;;;;;3.05;1.40;;;;;;;;;;5019523;28;20013;-79
2023/10/08 11:41:23;;;;;;;4.93;1.50;;;;;;;;;;5019923;28;20088;-78
2023/10/08 11:43:53;;;;;;;4.45;1.42;;;;;;;;;;5024898;28;20050;-79
2023/10/08 11:46:27;;;;;;;4.22;1.10;;;;;;;;;;5027745;28;20030;-77
2023/10/08 11:48:52;;;;;;;4.50;1.48;;;;;;;;;;5024706;28;20022;-79
2023/10/08 11:51:17;;;;;;;2.75;1.10;;;;;;;;;;5020012;28;20064;-78
2023/10/08 11:53:47;;;;;;;6.82;1.58;;;;;;;;;;5018268;28;20114;-78
2023/10/08 11:56:13;;;;;;;3.58;1.50;;;;;;;;;;5020793;28;20487;-79
2023/10/08 11:58:44;;;;;;;3.83;1.52;;;;;;;;;;5022643;28;20106;-79
2023/10/08 12:01:35;;;;;;;1.83;1.08;;;;;;;;;;5023509;28;20022;-81
2023/10/08 12:04:03;;;;;;;3.05;1.30;;;;;;;;;;5018935;28;20072;-78
2023/10/08 12:06:32;;;;;;;3.03;1.13;;;;;;;;;;5021994;28;20033;-78
2023/10/08 12:08:58;;;;;;;4.15;1.35;;;;;;;;;;5020357;28;20045;-78
2023/10/08 12:11:30;;;;;;;2.47;1.30;;;;;;;;;;5020864;28;20022;-77
2023/10/08 12:13:56;;;;;;;2.45;1.40;;;;;;;;;;5020390;28;20420;-81
2023/10/08 12:16:22;;;;;;;3.88;1.50;;;;;;;;;;5017282;28;20083;-77
2023/10/08 12:18:48;;;;;;;3.92;1.30;;;;;;;;;;5017600;28;20026;-77
2023/10/08 12:21:15;;;;;;;3.25;1.48;;;;;;;;;;5019704;28;20500;-78
2023/10/08 12:23:46;;;;;;;4.18;1.52;;;;;;;;;;5018196;28;20026;-78
2023/10/08 12:26:15;;;;;;;2.38;1.10;;;;;;;;;;5021869;28;20022;-81
2023/10/08 12:28:44;;;;;;;3.08;1.15;;;;;;;;;;5021083;28;20408;-78
2023/10/08 12:31:10;;;;;;;3.97;1.15;;;;;;;;;;5022416;28;20153;-78
2023/10/08 12:33:35;;;;;;;2.25;1.00;;;;;;;;;;5026606;28;20026;-78
2023/10/08 12:36:22;;;;;;;2.53;1.35;;;;;;;;;;5021928;28;20056;-80
2023/10/08 12:38:48;;;;;;;2.88;1.13;;;;;;;;;;5018311;28;20057;-77
2023/10/08 12:41:13;;;;;;;3.25;1.20;;;;;;;;;;5014724;28;20056;-78
2023/10/08 12:43:45;;;;;;;6.85;1.10;;;;;;;;;;5014465;28;20022;-77
2023/10/08 12:46:17;;;;;;;5.07;1.10;;;;;;;;;;5015022;28;20026;-76
2023/10/08 12:48:44;;;;;;;3.33;1.08;;;;;;;;;;5014906;28;20022;-77
2023/10/08 12:51:11;;;;;;;4.95;1.15;;;;;;;;;;5012620;28;20030;-77
2023/10/08 12:53:37;;;;;;;3.25;1.20;;;;;;;;;;5014688;28;20025;-77
2023/10/08 12:56:06;;;;;;;3.05;0.98;;;;;;;;;;5015177;28;20026;-75
2023/10/08 12:58:44;;;;;;;3.38;1.20;;;;;;;;;;5015388;28;20026;-76
2023/10/08 13:01:13;;;;;;;2.10;1.00;;;;;;;;;;5015986;28;20057;-77
2023/10/08 13:03:42;;;;;;;2.92;1.10;;;;;;;;;;5015537;28;20022;-77
2023/10/08 13:06:14;;;;;;;3.58;1.10;;;;;;;;;;5014075;28;20037;-76
2023/10/08 13:08:40;;;;;;;1.50;0.95;;;;;;;;;;5014374;28;20396;-77
2023/10/08 13:11:05;;;;;;;5.00;1.15;;;;;;;;;;5017437;28;20029;-76
2023/10/08 13:13:36;;;;;;;3.23;1.53;;;;;;;;;;5015361;28;20022;-77
2023/10/08 13:16:07;;;;;;;3.33;0.95;;;;;;;;;;5013806;28;20454;-76
2023/10/08 13:18:34;;;;;;;3.22;1.15;;;;;;;;;;5017304;28;20108;-76
2023/10/08 13:21:00;;;;;;;2.65;0.95;;;;;;;;;;5013691;28;20037;-78
2023/10/08 13:23:25;;;;;;;1.75;0.82;;;;;;;;;;5012019;28;20049;-76
2023/10/08 13:25:54;;;;;;;3.75;1.05;;;;;;;;;;5013930;28;20564;-74
2023/10/08 13:28:22;;;;;;;1.67;0.90;;;;;;;;;;5012921;28;20385;-74
2023/10/08 13:30:52;;;;;;;5.25;1.25;;;;;;;;;;5014583;28;20038;-76
2023/10/08 13:33:19;;;;;;;3.33;1.00;;;;;;;;;;5014441;28;20044;-76
2023/10/08 13:35:45;;;;;;;2.65;0.88;;;;;;;;;;5014552;28;20034;-76
2023/10/08 13:38:13;;;;;;;1.98;0.80;;;;;;;;;;5013252;28;20163;-76
2023/10/08 13:40:43;;;;;;;4.05;0.80;;;;;;;;;;5014481;28;20029;-75
2023/10/08 13:43:11;;;;;;;3.75;0.95;;;;;;;;;;5014499;28;20397;-76
2023/10/08 13:45:39;;;;;;;2.00;0.95;;;;;;;;;;5012962;28;20025;-76
2023/10/08 13:48:05;;;;;;;2.58;0.95;;;;;;;;;;5010749;28;20029;-76
2023/10/08 13:50:31;;;;;;;3.67;1.20;;;;;;;;;;5012061;28;20018;-77
2023/10/08 13:52:57;;;;;;;1.33;0.90;;;;;;;;;;5012292;28;20485;-75
2023/10/08 13:55:25;;;;;;;3.90;1.00;;;;;;;;;;5014181;28;20033;-76
2023/10/08 13:57:54;;;;;;;2.33;1.00;;;;;;;;;;5013320;28;20022;-75
2023/10/08 14:00:25;;;;;;;3.28;1.20;;;;;;;;;;5015388;28;20064;-75
2023/10/08 14:02:52;;;;;;;2.03;0.82;;;;;;;;;;5015592;28;20068;-74
2023/10/08 14:05:21;;;;;;;2.42;0.90;;;;;;;;;;5016322;28;20029;-74
2023/10/08 14:07:48;;;;;;;3.35;0.90;;;;;;;;;;5012531;28;20033;-75
2023/10/08 14:10:18;;;;;;;2.95;1.05;;;;;;;;;;5015983;28;20038;-78
2023/10/08 14:12:50;;;;;;;2.30;0.93;;;;;;;;;;5014244;28;20029;-75
2023/10/08 14:15:18;;;;;;;2.78;1.00;;;;;;;;;;5011362;28;20083;-75
2023/10/08 14:17:48;;;;;;;2.30;1.05;;;;;;;;;;5011508;28;20022;-72
2023/10/08 14:20:15;;;;;;;3.22;0.82;;;;;;;;;;5015777;28;20029;-75
2023/10/08 14:22:41;;;;;;;2.92;1.05;;;;;;;;;;5013336;28;20026;-74
2023/10/08 14:25:11;;;;;;;2.53;1.20;;;;;;;;;;5013684;28;20036;-75
2023/10/08 14:27:39;;;;;;;4.35;1.00;;;;;;;;;;5015072;28;20532;-75
2023/10/08 14:30:15;;;;;;;4.55;1.02;;;;;;;;;;5015036;28;20025;-74
2023/10/08 14:32:45;;;;;;;3.08;1.05;;;;;;;;;;5015561;28;20030;-75
2023/10/08 14:43:23;;;;;;;2.85;1.40;;;;;;;;;;5016086;28;20048;-74
2023/10/08 14:45:52;;;;;;;4.47;1.17;;;;;;;;;;5015659;28;20104;-74
2023/10/08 14:48:18;;;;;;;3.47;1.05;;;;;;;;;;5016294;28;20030;-74
2023/10/08 14:50:43;;;;;;;3.88;1.00;;;;;;;;;;5016335;28;20026;-76
2023/10/08 14:53:08;;;;;;;4.57;1.20;;;;;;;;;;5016582;28;20026;-75
2023/10/08 14:55:35;;;;;;;3.10;1.20;;;;;;;;;;5018703;28;20482;-73
2023/10/08 14:58:07;;;;;;;3.13;1.40;;;;;;;;;;5015499;28;20017;-76
2023/10/08 15:00:35;;;;;;;4.20;1.10;;;;;;;;;;5015427;28;20052;-75
2023/10/08 15:03:08;;;;;;;3.70;1.10;;;;;;;;;;5011282;28;20037;-74
2023/10/08 15:05:36;;;;;;;2.65;0.98;;;;;;;;;;5013947;28;20029;-75
2023/10/08 15:08:10;;;;;;;4.55;2.03;;;;;;;;;;5012928;28;20116;-74
2023/10/08 15:10:36;;;;;;;2.30;1.40;;;;;;;;;;5011976;28;20030;-74
2023/10/08 15:13:01;;;;;;;2.78;1.45;;;;;;;;;;5013673;28;20105;-75
2023/10/08 15:15:34;;;;;;;6.05;1.65;;;;;;;;;;5013272;28;20041;-76
2023/10/08 15:18:02;;;;;;;3.63;1.30;;;;;;;;;;5011791;28;20018;-75
2023/10/08 15:20:32;;;;;;;3.60;1.25;;;;;;;;;;5013139;28;20033;-75
2023/10/08 15:22:58;;;;;;;3.40;1.33;;;;;;;;;;5013275;28;20060;-74
2023/10/08 15:25:23;;;;;;;3.88;1.80;;;;;;;;;;5013535;28;20022;-74
2023/10/08 15:27:48;;;;;;;3.25;1.58;;;;;;;;;;5013018;28;20022;-75
2023/10/08 15:30:20;;;;;;;4.80;1.48;;;;;;;;;;5012976;28;20038;-74
2023/10/08 15:32:49;;;;;;;4.05;1.33;;;;;;;;;;5013098;28;20025;-75
2023/10/08 15:35:19;;;;;;;2.92;1.60;;;;;;;;;;5012919;28;20033;-75
2023/10/08 15:37:46;;;;;;;4.05;1.55;;;;;;;;;;5011765;28;20481;-74
2023/10/08 15:40:17;;;;;;;3.58;1.35;;;;;;;;;;5013117;28;20481;-75
2023/10/08 15:42:43;;;;;;;4.13;1.63;;;;;;;;;;5011789;28;20022;-75
2023/10/08 15:45:12;;;;;;;2.35;1.20;;;;;;;;;;5012879;28;20057;-75
2023/10/08 15:47:37;;;;;;;2.50;1.17;;;;;;;;;;5011811;28;20092;-75
2023/10/08 15:50:03;;;;;;;2.85;1.20;;;;;;;;;;5013011;28;20038;-75
2023/10/08 15:52:28;;;;;;;2.78;1.30;;;;;;;;;;5012743;28;20026;-75
2023/10/08 15:54:54;;;;;;;9.10;1.80;;;;;;;;;;5012873;28;20106;-75
2023/10/08 15:57:19;;;;;;;3.65;1.77;;;;;;;;;;5011445;28;20021;-74
2023/10/08 15:59:45;;;;;;;5.72;1.40;;;;;;;;;;5011480;28;20033;-75
2023/10/08 16:02:11;;;;;;;4.85;1.60;;;;;;;;;;5011457;28;20033;-76